Home > Products > Valid Products > TAF

000
FTUS45 KBOU 261733
TAFAPA
TAF
KAPA 261733Z 2618/2718 15006KT P6SM SCT040 BKN080
     FM261830 04010KT P6SM -TSRA BKN050CB OVC090
      TEMPO 2619/2621 VRB20G30KT 3SM +TSRAGR BKN030CB
     FM262200 01010KT P6SM -SHRA SCT040 OVC070
      TEMPO 2622/2702 4SM TSRA OVC030CB
     FM270200 33010KT 5SM -RA BR BKN010 OVC020
     FM271200 32009KT P6SM -SHRA BKN008 OVC016
     FM271600 03010KT P6SM VCSH SCT010 BKN020=



000
FTUS45 KBOU 261733
TAFDEN
TAF
KDEN 261733Z 2618/2724 08006KT P6SM SCT030 BKN060 BKN100
     FM261900 06010KT P6SM -TSRA BKN050CB OVC090
      TEMPO 2619/2621 VRB20G30KT 3SM +TSRAGR BKN030CB
     FM262200 01010KT P6SM -SHRA SCT040 OVC070
      TEMPO 2622/2702 4SM TSRA OVC030CB
     FM270200 33010KT P6SM -RA BKN012 OVC025
     FM271200 32009KT P6SM -SHRA BKN010 OVC020
     FM271500 03010KT P6SM VCSH SCT010 BKN020=



000
FTUS45 KBOU 261733
TAFBJC
TAF
KBJC 261733Z 2618/2718 08005KT P6SM -TSRA BKN040CB OVC090
      TEMPO 2619/2621 VRB20G30KT 3SM +TSRAGS BKN030CB
     FM262200 36011KT P6SM -SHRA SCT040 OVC070
      TEMPO 2622/2701 TSRA OVC030CB
     FM270200 33011KT P6SM -RA BKN008 OVC020
     FM271200 32009KT P6SM -SHRA BKN008 OVC016
     FM271600 03010KT P6SM VCSH SCT010 BKN020=



000
FTUS45 KBOU 261233 AAA
TAFDEN
TAF AMD
KDEN 261233Z 2613/2718 24007KT P6SM BKN050 BKN120
      TEMPO 2613/2615 SCT050 BKN120
     FM261500 10006KT P6SM VCSH BKN060 BKN100
     FM261830 04010KT P6SM -TSRA BKN050CB OVC090
      TEMPO 2619/2621 VRB20G30KT 3SM +TSRAGS BKN030CB
     FM262200 01010KT P6SM -SHRA SCT040 OVC070
      TEMPO 2622/2702 TSRA OVC030CB
     FM270200 35012KT P6SM -RA BKN012 OVC025
     FM271200 32009KT P6SM -SHRA BKN010 OVC020=



000
FTUS45 KBOU 260530
TAFDEN
TAF
KDEN 260530Z 2606/2712 05007KT P6SM VCSH SCT080 SCT140 BKN200
     FM260700 VRB05KT P6SM FEW080 SCT140 BKN200
     FM261500 10006KT P6SM SCT060 BKN100
     FM261900 04010KT P6SM VCTS BKN050CB OVC090
      TEMPO 2620/2624 VRB20G30KT -TSRA BKN040CB
     FM270000 02010KT P6SM VCTS SCT040CB OVC070
      TEMPO 2700/2702 -SHRA BKN030
     FM270200 36009KT P6SM -SHRA BKN012 OVC025=



000
FTUS45 KBOU 251234 AAA
TAFAPA
TAF AMD
KAPA 251234Z 2513/2612 17005KT P6SM FEW080 SCT220
     FM251800 12009KT P6SM FEW080 SCT140
     FM252300 04011KT P6SM SCT080 BKN140
     FM260600 30008KT P6SM SCT100 BKN150=



000
FTUS45 KBOU 251233 AAA
TAFDEN
TAF AMD
KDEN 251233Z 2513/2618 18007KT P6SM FEW220
     FM251600 14006KT P6SM FEW080 SCT220
     FM251900 08009KT P6SM FEW080 SCT140
     FM260100 04011KT P6SM SCT080 BKN140
     FM260800 33008KT P6SM SCT100 BKN150=



000
FTUS45 KBOU 251135
TAFBJC
TAF
KBJC 251135Z 2512/2612 VRB05KT P6SM FEW120 SCT220
     FM252000 34011KT P6SM SCT080 SCT140
     FM260300 30011KT P6SM SCT080 BKN140=



000
FTUS45 KBOU 251135
TAFDEN
TAF
KDEN 251135Z 2512/2618 33006KT P6SM FEW220
     FM251400 VRB06KT P6SM FEW080 SCT220
     FM251900 08009KT P6SM FEW080 SCT140
     FM260100 04011KT P6SM SCT080 BKN140
     FM260800 33008KT P6SM SCT100 BKN150=



000
FTUS45 KBOU 251135
TAFAPA
TAF
KAPA 251135Z 2512/2612 25008KT P6SM FEW220
     FM251400 VRB06KT P6SM FEW080 SCT220
     FM251800 12009KT P6SM FEW080 SCT140
     FM252300 04011KT P6SM SCT080 BKN140
     FM260600 30008KT P6SM SCT100 BKN150=



000
FTUS45 KBOU 250039 AAA
TAFDEN
TAF AMD
KDEN 250039Z 2501/2606 07014KT P6SM SCT080 SCT110 BKN140
     FM250300 12010KT P6SM FEW080 SCT110 BKN150
     FM250700 20009KT P6SM FEW120
     FM251800 16007KT P6SM FEW080 SCT220
     FM252100 11009KT P6SM SCT080 SCT140=



000
FTUS45 KBOU 242319 AAE
TAFAPA
TAF AMD
KAPA 242319Z 2423/2518 01008KT P6SM FEW070 BKN120
     FM250100 29010KT P6SM FEW080 SCT120
     FM250300 26009KT P6SM FEW220
     FM250700 19009KT P6SM SKC=



000
FTUS45 KBOU 242318 AAC
TAFDEN
TAF AMD
KDEN 242318Z 2423/2524 05012KT P6SM SCT080 BKN100
     FM250200 32008KT P6SM FEW080 SCT120
     FM250600 23009KT P6SM FEW220
     FM251800 14006KT P6SM FEW080 SCT220=



000
FTUS45 KBOU 242145 AAB
TAFDEN
TAF AMD
KDEN 242145Z 2422/2524 05011G19KT P6SM -TSRA BKN050CB BKN090
     FM242300 01010KT P6SM VCSH SCT080 BKN120
     FM250000 32008KT P6SM FEW080 SCT120
     FM250600 23009KT P6SM FEW220
     FM251800 14006KT P6SM FEW080 SCT220=



000
FTUS45 KBOU 242133 AAC
TAFBJC
TAF AMD
KBJC 242133Z 2422/2518 36005KT P6SM VCSH SCT030 BKN050 BKN120
      TEMPO 2422/2424 -SHRA BKN040
     FM250000 35011KT P6SM FEW080 SCT120
     FM250300 28006KT P6SM FEW220
     FM250500 24005KT P6SM SKC=



000
FTUS45 KBOU 241945 AAA
TAFAPA
TAF AMD
KAPA 241945Z 2420/2518 11014G24KT P6SM VCTS SCT040 SCT070CB BKN120
      TEMPO 2420/2423 VRB25G35KT -TSRA BKN050CB
     FM242300 01011KT P6SM FEW080 SCT120
     FM250300 26009KT P6SM FEW220
     FM250700 19009KT P6SM SKC=



000
FTUS45 KBOU 241731
TAFBJC
TAF
KBJC 241731Z 2418/2518 08010KT P6SM FEW040 SCT060 SCT120
     FM241900 32014G22KT P6SM VCTS SCT080CB BKN120
      TEMPO 2420/2423 VRB18G30KT -TSRA BKN080CB
     FM242300 35011KT P6SM FEW080 SCT120
     FM250300 28006KT P6SM FEW220
     FM250500 24005KT P6SM SKC=



000
FTUS45 KBOU 241731
TAFDEN
TAF
KDEN 241731Z 2418/2524 14014G23KT P6SM BKN040 BKN070
     FM241900 12013G20KT P6SM VCTS FEW040 SCT070CB BKN120
      TEMPO 2420/2423 VRB18G30KT -TSRA BKN070CB
     FM250000 02012KT P6SM VCSH SCT080 BKN120
     FM250300 32008KT P6SM FEW080 SCT120
     FM250600 23009KT P6SM FEW220
     FM251800 14006KT P6SM FEW080 SCT220=



000
FTUS45 KBOU 241731
TAFAPA
TAF
KAPA 241731Z 2418/2518 15011G20KT P6SM SCT045 SCT060 SCT120
     FM241830 16010G18KT P6SM VCTS SCT040 SCT070CB BKN120
     FM242300 01011KT P6SM FEW080 SCT120
     FM250300 26009KT P6SM FEW220
     FM250700 19009KT P6SM SKC=



000
FTUS45 KBOU 241458 AAB
TAFDEN
TAF AMD
KDEN 241458Z 2415/2518 14014G23KT P6SM FEW060 SCT120 SCT220
     FM242000 12013G20KT P6SM VCTS SCT080CB BKN120
      TEMPO 2420/2423 VRB18G30KT -TSRA BKN080CB
     FM250000 02012KT P6SM SCT080 BKN120
     FM250200 32008KT P6SM FEW080 SCT120
     FM250600 23009KT P6SM FEW220=



    US Dept of Commerce
    National Oceanic and Atmospheric Administration
    National Weather Service
    1325 East West Highway
    Silver Spring, MD 20910
    Page Author: NWS Internet Services Team
Disclaimer
Information Quality
Credits
Glossary
Privacy Policy
Freedom of Information Act (FOIA)
About Us
Career Opportunities